Time;durP1;ratioP1;P1;durP2;ratioP2;P2;SDS_P1;SDS_P2;PMS_P1;PMS_P2;Temp;Humidity;BMP_temperature;BMP_pressure;BME280_temperature;BME280_humidity;BME280_pressure;Samples;Min_cycle;Max_cycle;Signal;HPM_P1;HPM_P2
2021/12/30 00:00:41;;;;;;;4.78;3.17;;;;;;;10.19;72.06;100716.34;4876554;29;20484;-88
2021/12/30 00:03:09;;;;;;;4.78;3.20;;;;;;;10.20;71.69;100730.28;4876196;29;20072;-88
2021/12/30 00:05:35;;;;;;;5.03;3.42;;;;;;;10.38;71.94;100754.81;4877683;29;20467;-89
2021/12/30 00:08:02;;;;;;;4.28;3.40;;;;;;;10.19;71.62;100729.38;4876324;29;20032;-88
2021/12/30 00:10:28;;;;;;;5.53;2.97;;;;;;;10.21;71.96;100728.59;4876333;29;20073;-88
2021/12/30 00:12:54;;;;;;;3.10;2.78;;;;;;;10.36;71.68;100768.59;4876195;29;20120;-88
2021/12/30 00:15:20;;;;;;;4.00;2.88;;;;;;;10.41;71.85;100766.25;4876370;29;20041;-88
2021/12/30 00:17:46;;;;;;;;;;;;;;;10.44;71.89;100772.53;4876589;29;20037;-86
2021/12/30 00:20:12;;;;;;;3.60;2.90;;;;;;;10.17;71.70;100731.03;4876634;29;19912;-88
2021/12/30 00:22:41;;;;;;;3.80;2.75;;;;;;;10.14;72.02;100741.31;4862596;29;20033;-88
2021/12/30 00:25:07;;;;;;;5.05;3.00;;;;;;;10.25;71.82;100754.03;4876344;29;20440;-87
2021/12/30 00:27:32;;;;;;;;;;;;;;;10.44;71.85;100769.94;4877638;29;20037;-88
2021/12/30 00:29:58;;;;;;;3.88;2.88;;;;;;;10.30;71.86;100758.72;4877434;29;19931;-88
2021/12/30 00:32:24;;;;;;;3.72;2.80;;;;;;;9.89;71.65;100693.81;4875871;29;20033;-88
2021/12/30 00:34:49;;;;;;;3.85;2.80;;;;;;;10.30;71.47;100770.88;4876381;29;20045;-88
2021/12/30 00:37:15;;;;;;;3.97;2.88;;;;;;;10.21;71.96;100747.75;4865988;29;20053;-88
2021/12/30 00:39:41;;;;;;;3.05;2.72;;;;;;;10.13;71.92;100730.78;4876281;29;20443;-87
2021/12/30 00:42:08;;;;;;;4.22;2.88;;;;;;;10.21;71.64;100746.88;4876578;29;20422;-87
2021/12/30 00:44:35;;;;;;;3.28;2.40;;;;;;;10.16;71.82;100729.25;4875976;29;20033;-87
2021/12/30 00:47:03;;;;;;;4.97;2.70;;;;;;;10.19;71.86;100746.78;4876481;29;20097;-87
2021/12/30 00:49:29;;;;;;;3.97;2.70;;;;;;;10.08;71.96;100729.63;4876028;29;20461;-88
2021/12/30 00:51:55;;;;;;;3.30;2.60;;;;;;;9.64;71.89;100658.53;4876257;29;20041;-87
2021/12/30 00:54:21;;;;;;;3.47;2.53;;;;;;;10.24;72.05;100768.78;4875807;29;20036;-87
2021/12/30 00:56:47;;;;;;;4.28;2.78;;;;;;;10.33;71.76;100768.44;4877276;29;20029;-87
2021/12/30 00:59:12;;;;;;;3.13;2.60;;;;;;;10.30;72.04;100766.53;4876969;29;20044;-88
2021/12/30 01:01:39;;;;;;;4.72;2.70;;;;;;;10.19;71.61;100758.09;4874748;29;20134;-88
2021/12/30 01:04:05;;;;;;;4.20;2.85;;;;;;;10.25;71.86;100751.44;4875973;29;20040;-88
2021/12/30 01:06:30;;;;;;;3.25;2.47;;;;;;;10.17;71.51;100737.97;4876300;29;20044;-88
2021/12/30 01:08:57;;;;;;;2.88;2.58;;;;;;;10.28;71.52;100751.59;4875697;29;20041;-86
2021/12/30 01:11:24;;;;;;;3.20;2.55;;;;;;;10.18;71.74;100740.66;4875820;29;20045;-88
2021/12/30 01:13:58;;;;;;;3.25;2.60;;;;;;;10.42;71.47;100774.16;4875765;29;20068;-87
2021/12/30 01:16:24;;;;;;;3.53;2.95;;;;;;;10.43;71.92;100789.00;4878722;29;20032;-88
2021/12/30 01:19:21;;;;;;;;;;;;;;;10.43;71.85;100786.38;4880159;29;20036;-88
2021/12/30 01:21:48;;;;;;;3.25;2.30;;;;;;;10.41;72.01;100793.22;4879800;29;19916;-87
2021/12/30 01:24:13;;;;;;;3.13;2.45;;;;;;;10.37;71.75;100786.97;4879540;29;20063;-88
2021/12/30 01:26:39;;;;;;;3.30;2.42;;;;;;;10.34;71.75;100765.91;4879339;29;20040;-87
2021/12/30 01:29:05;;;;;;;3.30;2.40;;;;;;;10.28;71.60;100764.63;4880608;29;20041;-87
2021/12/30 01:31:32;;;;;;;3.88;2.88;;;;;;;10.43;71.47;100783.78;4880445;29;20116;-88
2021/12/30 01:33:58;;;;;;;3.92;2.28;;;;;;;9.68;71.58;100673.53;4879302;29;20515;-87
2021/12/30 01:36:26;;;;;;;3.15;2.30;;;;;;;9.94;71.54;100718.41;4879278;29;20060;-87
2021/12/30 01:38:52;;;;;;;2.47;2.10;;;;;;;10.42;71.76;100799.38;4864083;29;20063;-87
2021/12/30 01:41:18;;;;;;;;;;;;;;;10.42;71.99;100791.56;4879613;29;20032;-87
2021/12/30 01:43:44;;;;;;;3.97;2.40;;;;;;;10.05;71.95;100734.66;4879178;29;19975;-88
2021/12/30 01:46:11;;;;;;;2.80;2.13;;;;;;;10.34;72.05;100792.00;4879399;29;20523;-89
2021/12/30 01:48:37;;;;;;;2.33;2.03;;;;;;;10.09;72.11;100747.97;4863368;29;20529;-89
2021/12/30 01:51:04;;;;;;;3.33;2.38;;;;;;;9.66;71.97;100679.47;4877431;29;20385;-89
2021/12/30 01:53:31;;;;;;;5.68;2.60;;;;;;;10.35;71.80;100799.03;4879422;29;20056;-89
2021/12/30 01:55:58;;;;;;;4.03;2.53;;;;;;;10.44;71.64;100810.81;4863335;29;20420;-89
2021/12/30 01:58:24;;;;;;;3.10;2.22;;;;;;;10.33;72.24;100805.88;4878937;29;20029;-87
2021/12/30 02:00:50;;;;;;;;;;;;;;;10.37;71.96;100794.81;4863166;29;20034;-89
2021/12/30 02:03:16;;;;;;;2.90;2.20;;;;;;;10.09;72.32;100750.56;4878238;29;19991;-89
2021/12/30 02:05:42;;;;;;;2.95;1.98;;;;;;;9.99;71.81;100728.31;4878584;29;20051;-89
2021/12/30 02:08:13;;;;;;;4.22;2.20;;;;;;;10.29;71.85;100777.81;4878592;29;20527;-89
2021/12/30 02:10:42;;;;;;;2.42;2.10;;;;;;;10.30;72.11;100792.66;4871455;29;20456;-89
2021/12/30 02:13:09;;;;;;;3.70;2.58;;;;;;;10.33;71.73;100790.22;4880303;29;20088;-89
2021/12/30 02:15:35;;;;;;;3.47;1.98;;;;;;;10.37;71.94;100802.63;4878669;29;20594;-89
2021/12/30 02:18:03;;;;;;;3.35;2.22;;;;;;;10.36;72.08;100816.47;4862918;29;20040;-87
2021/12/30 02:20:50;;;;;;;2.47;2.13;;;;;;;10.37;71.86;100814.75;4863029;29;20033;-89
2021/12/30 02:23:24;;;;;;;2.60;2.25;;;;;;;10.42;71.38;100820.25;4862977;29;20093;-89
2021/12/30 02:25:56;;;;;;;2.75;2.10;;;;;;;10.18;71.70;100778.88;4878807;29;20044;-89
2021/12/30 02:28:25;;;;;;;2.50;2.00;;;;;;;10.32;71.99;100813.63;4862348;29;20193;-89
2021/12/30 02:30:54;;;;;;;2.63;2.00;;;;;;;10.39;71.84;100818.34;4862503;29;20052;-89
2021/12/30 02:33:19;;;;;;;3.50;1.90;;;;;;;10.36;71.85;100812.97;4878834;29;20039;-90
2021/12/30 02:35:45;;;;;;;2.28;1.95;;;;;;;10.38;71.94;100811.34;4866378;29;20518;-89
2021/12/30 02:38:11;;;;;;;1.73;1.60;;;;;;;10.04;72.08;100770.28;4865713;29;20043;-89
2021/12/30 02:40:43;;;;;;;2.33;1.95;;;;;;;10.34;72.23;100819.81;4881691;29;20067;-89
2021/12/30 02:43:19;;;;;;;3.38;2.30;;;;;;;10.19;72.08;100792.03;4865896;29;20033;-89
2021/12/30 02:45:46;;;;;;;2.92;2.00;;;;;;;9.75;71.53;100713.88;4881455;29;20088;-89
2021/12/30 02:48:24;;;;;;;3.28;2.25;;;;;;;9.80;72.43;100733.31;4894662;29;20032;-90
2021/12/30 02:50:54;;;;;;;2.35;1.98;;;;;;;10.25;71.50;100794.09;4881323;29;20550;-89
2021/12/30 02:53:20;;;;;;;2.00;1.80;;;;;;;10.16;71.80;100790.97;4876107;29;20043;-88
2021/12/30 02:55:48;;;;;;;4.05;2.15;;;;;;;10.25;71.91;100806.25;4880793;29;20499;-88
2021/12/30 02:58:14;;;;;;;2.35;1.98;;;;;;;10.40;71.81;100820.16;4880676;29;20466;-89
2021/12/30 03:00:48;;;;;;;4.32;2.28;;;;;;;10.34;72.05;100828.53;4864668;29;20032;-90
2021/12/30 03:03:19;;;;;;;2.17;1.98;;;;;;;10.31;72.17;100824.88;4880741;29;20063;-90
2021/12/30 03:05:59;;;;;;;2.20;1.85;;;;;;;10.10;72.08;100786.31;4897818;29;20029;-89
2021/12/30 03:08:25;;;;;;;2.63;1.83;;;;;;;10.31;71.63;100824.88;4876298;29;20033;-89
2021/12/30 03:10:56;;;;;;;2.85;1.75;;;;;;;9.96;71.59;100769.84;4865540;29;20048;-91
2021/12/30 03:13:30;;;;;;;2.33;1.90;;;;;;;10.35;71.84;100845.09;4865435;29;20036;-90
2021/12/30 03:16:03;;;;;;;2.67;1.85;;;;;;;10.08;72.20;100800.97;4863339;29;20040;-89
2021/12/30 03:18:31;;;;;;;2.25;1.80;;;;;;;10.00;72.33;100794.41;4875684;29;20035;-90
2021/12/30 03:21:01;;;;;;;2.15;1.60;;;;;;;10.36;72.01;100842.59;4864934;29;20486;-90
2021/12/30 03:23:31;;;;;;;2.38;1.80;;;;;;;10.08;71.70;100790.53;4876922;29;20036;-89
2021/12/30 03:25:56;;;;;;;1.85;1.70;;;;;;;10.08;72.07;100802.69;4879582;29;20035;-90
2021/12/30 03:28:23;;;;;;;2.40;1.80;;;;;;;10.31;72.20;100849.28;4881251;29;20033;-91
2021/12/30 03:30:50;;;;;;;2.25;1.80;;;;;;;10.30;72.01;100855.28;4864858;29;20032;-90
2021/12/30 03:33:16;;;;;;;2.03;1.50;;;;;;;10.12;71.73;100820.31;4881366;29;20060;-90
2021/12/30 03:35:41;;;;;;;3.35;1.90;;;;;;;9.97;71.79;100796.88;4876722;29;20067;-90
2021/12/30 03:38:10;;;;;;;2.22;1.58;;;;;;;10.00;71.98;100802.25;4888327;29;20086;-89
2021/12/30 03:40:36;;;;;;;1.73;1.63;;;;;;;10.16;72.03;100837.94;4872713;29;20033;-87
2021/12/30 03:43:02;;;;;;;1.77;1.50;;;;;;;10.02;71.77;100820.59;4880105;29;20503;-89
2021/12/30 03:45:27;;;;;;;1.67;1.55;;;;;;;9.63;71.96;100744.47;4895885;29;20040;-89
2021/12/30 03:47:53;;;;;;;1.88;1.42;;;;;;;10.32;71.70;100866.72;4869178;29;20099;-89
2021/12/30 03:50:26;;;;;;;2.85;1.70;;;;;;;10.30;72.11;100868.34;4858451;29;20037;-88
2021/12/30 03:57:59;;;;;;;1.80;1.55;;;;;;;10.19;71.58;100856.38;4896061;29;20036;-89
2021/12/30 04:00:26;;;;;;;2.42;1.48;;;;;;;10.26;72.11;100881.09;4879793;29;20032;-89
2021/12/30 04:02:52;;;;;;;1.95;1.73;;;;;;;10.24;72.19;100881.00;4880224;29;20032;-88
2021/12/30 04:05:18;;;;;;;1.80;1.42;;;;;;;10.14;71.76;100865.66;4895000;29;20029;-89
2021/12/30 04:07:44;;;;;;;2.13;1.55;;;;;;;10.01;71.66;100843.16;4876876;29;20045;-89
2021/12/30 04:10:13;;;;;;;1.60;1.50;;;;;;;10.26;71.93;100883.72;4891784;29;20435;-88
2021/12/30 04:12:39;;;;;;;1.48;1.38;;;;;;;10.27;72.04;100889.03;4895527;29;20043;-88
2021/12/30 04:15:06;;;;;;;2.30;1.60;;;;;;;10.18;72.10;100885.88;4879091;29;20020;-88
2021/12/30 04:17:36;;;;;;;1.63;1.40;;;;;;;10.23;71.91;100902.72;4879574;29;20561;-89
2021/12/30 04:20:04;;;;;;;1.92;1.55;;;;;;;10.08;71.70;100870.53;4869271;29;20033;-89
2021/12/30 04:22:30;;;;;;;1.65;1.42;;;;;;;10.12;71.90;100878.59;4875259;29;20453;-89
2021/12/30 04:24:57;;;;;;;1.95;1.40;;;;;;;10.19;71.84;100885.97;4879860;29;20132;-89
2021/12/30 04:27:24;;;;;;;1.50;1.40;;;;;;;10.09;71.84;100867.97;4879352;29;20043;-88
2021/12/30 04:29:50;;;;;;;1.55;1.40;;;;;;;10.05;71.84;100871.22;4864561;29;20029;-88
2021/12/30 04:32:15;;;;;;;1.90;1.40;;;;;;;10.08;71.72;100878.34;4896449;29;20446;-88
2021/12/30 04:34:41;;;;;;;1.55;1.45;;;;;;;10.00;72.07;100875.28;4863902;29;20033;-88
2021/12/30 04:37:07;;;;;;;1.77;1.48;;;;;;;9.98;71.60;100879.50;4878912;29;20045;-88
2021/12/30 04:39:32;;;;;;;1.55;1.42;;;;;;;9.86;72.12;100871.84;4896004;29;20119;-88
2021/12/30 04:41:58;;;;;;;1.48;1.38;;;;;;;9.87;71.88;100870.19;4879560;29;20028;-88
2021/12/30 04:44:25;;;;;;;2.03;1.40;;;;;;;10.14;71.63;100929.19;4896275;29;20037;-89
2021/12/30 04:46:51;;;;;;;1.65;1.38;;;;;;;10.26;71.79;100956.78;4879940;29;20036;-89
2021/12/30 04:49:19;;;;;;;1.60;1.33;;;;;;;10.05;71.83;100923.41;4879892;29;20040;-85
2021/12/30 04:51:45;;;;;;;5.03;1.45;;;;;;;10.09;71.91;100932.31;4885639;29;20092;-88
2021/12/30 04:54:10;;;;;;;2.40;1.40;;;;;;;10.26;71.72;100967.22;4867395;29;20049;-89
2021/12/30 04:56:36;;;;;;;1.73;1.25;;;;;;;10.24;71.78;100977.56;4882714;29;20547;-89
2021/12/30 04:59:02;;;;;;;2.17;1.50;;;;;;;10.21;71.73;100966.06;4882879;29;20518;-88
2021/12/30 05:01:27;;;;;;;1.95;1.60;;;;;;;10.26;71.71;100983.78;4882881;29;20077;-88
2021/12/30 05:03:53;;;;;;;1.65;1.52;;;;;;;9.97;71.79;100936.00;4899520;29;20495;-88
2021/12/30 05:06:20;;;;;;;2.75;1.30;;;;;;;10.17;71.84;100983.25;4867142;29;20040;-89
2021/12/30 05:08:52;;;;;;;2.88;1.40;;;;;;;10.03;71.83;100939.78;4883160;29;20036;-88
2021/12/30 05:11:19;;;;;;;1.58;1.48;;;;;;;10.01;72.08;100957.94;4881562;29;20033;-88
2021/12/30 05:13:45;;;;;;;1.67;1.50;;;;;;;10.28;71.67;100999.53;4882470;29;20052;-89
2021/12/30 05:16:15;;;;;;;1.63;1.30;;;;;;;10.12;71.79;100979.47;4882335;29;20636;-89
2021/12/30 05:18:41;;;;;;;1.40;1.30;;;;;;;10.30;71.89;101011.91;4878251;29;20243;-89
2021/12/30 05:21:07;;;;;;;2.00;1.40;;;;;;;10.14;71.71;101006.56;4899304;29;20037;-89
2021/12/30 05:23:34;;;;;;;2.78;1.40;;;;;;;9.90;71.94;100962.53;4882497;29;20040;-88
2021/12/30 05:26:00;;;;;;;1.40;1.20;;;;;;;10.27;71.63;101024.75;4899339;29;20067;-88
2021/12/30 05:28:26;;;;;;;1.80;1.30;;;;;;;9.92;71.84;100973.97;4882773;29;20112;-89
2021/12/30 05:30:52;;;;;;;1.20;1.10;;;;;;;10.14;71.73;101017.91;4866168;29;20511;-88
2021/12/30 05:33:17;;;;;;;1.23;1.13;;;;;;;10.09;71.93;101008.88;4879028;29;20076;-88
2021/12/30 05:35:43;;;;;;;1.27;1.17;;;;;;;10.07;71.57;101018.31;4880449;29;20052;-88
2021/12/30 05:38:09;;;;;;;1.67;1.27;;;;;;;9.95;71.90;101002.84;4897907;29;20488;-88
2021/12/30 05:40:35;;;;;;;1.60;1.10;;;;;;;9.99;71.55;101009.16;4898646;29;20066;-89
2021/12/30 05:43:06;;;;;;;1.23;1.13;;;;;;;10.01;72.00;101027.50;4882580;29;20037;-93
2021/12/30 05:45:41;;;;;;;2.35;1.05;;;;;;;9.91;72.08;101023.44;4867341;29;20490;-91
2021/12/30 05:48:10;;;;;;;1.42;1.20;;;;;;;10.06;71.63;101039.13;4883370;29;20024;-93
2021/12/30 05:51:00;;;;;;;1.77;1.48;;;;;;;10.24;72.35;101084.56;4883105;29;20029;-93
2021/12/30 05:53:30;;;;;;;3.25;1.30;;;;;;;10.16;72.01;101071.09;4879733;29;20072;-88
2021/12/30 05:55:57;;;;;;;1.50;1.17;;;;;;;10.23;72.07;101085.41;4886151;29;20605;-91
2021/12/30 05:58:29;;;;;;;1.50;1.40;;;;;;;10.11;71.51;101055.94;4867461;29;20044;-92
2021/12/30 06:04:17;;;;;;;1.58;1.30;;;;;;;10.07;71.68;101064.41;4886536;29;20100;-92
2021/12/30 06:10:31;;;;;;;1.85;1.45;;;;;;;10.22;72.18;101108.78;4899609;29;20429;-92
2021/12/30 06:13:27;;;;;;;1.23;1.13;;;;;;;10.23;71.62;101116.72;4897207;29;20072;-90
2021/12/30 06:15:56;;;;;;;1.10;1.00;;;;;;;10.05;71.68;101087.78;4882135;29;20438;-90
2021/12/30 06:18:24;;;;;;;1.33;1.23;;;;;;;10.06;71.71;101091.31;4882083;29;20046;-90
2021/12/30 06:20:49;;;;;;;1.70;1.10;;;;;;;10.07;71.74;101096.59;4866441;29;20422;-89
2021/12/30 06:23:15;;;;;;;3.00;1.10;;;;;;;9.96;71.59;101079.41;4871465;29;20040;-89
2021/12/30 06:25:43;;;;;;;1.60;1.27;;;;;;;10.13;71.94;101125.69;4877782;29;20044;-89
2021/12/30 06:28:09;;;;;;;1.45;1.20;;;;;;;9.99;71.80;101103.97;4866042;29;20064;-90
2021/12/30 06:30:37;;;;;;;1.33;1.08;;;;;;;9.46;71.99;101011.97;4871744;29;20033;-89
2021/12/30 06:33:11;;;;;;;1.80;1.35;;;;;;;9.82;71.71;101077.63;4881051;29;20047;-93
2021/12/30 06:36:14;;;;;;;1.17;1.05;;;;;;;10.22;71.54;101135.78;4882664;29;20180;-92
2021/12/30 06:38:49;;;;;;;3.53;1.27;;;;;;;10.19;71.66;101138.22;4898847;29;20037;-93
2021/12/30 06:41:20;;;;;;;2.33;1.13;;;;;;;10.17;72.01;101138.13;4899134;29;20021;-92
2021/12/30 06:44:08;;;;;;;2.50;1.50;;;;;;;10.20;71.72;101142.63;4882354;29;20043;-91
2021/12/30 06:47:06;;;;;;;1.60;1.35;;;;;;;10.21;71.71;101147.03;4897432;29;20050;-91
2021/12/30 06:50:07;;;;;;;1.50;1.23;;;;;;;10.18;71.77;101154.66;4863388;29;20040;-92
2021/12/30 06:52:42;;;;;;;1.40;1.10;;;;;;;9.81;72.71;101134.13;4897295;29;20029;-91
2021/12/30 06:55:13;;;;;;;2.88;1.20;;;;;;;9.99;71.71;101129.16;4880286;29;20608;-90
2021/12/30 06:57:41;;;;;;;1.30;1.20;;;;;;;10.26;71.58;101157.75;4864944;29;20025;-89
2021/12/30 07:00:08;;;;;;;2.65;1.30;;;;;;;9.52;71.86;101048.84;4874934;29;20036;-90
2021/12/30 07:02:35;;;;;;;1.70;1.48;;;;;;;10.14;71.86;101165.75;4879539;29;20040;-89
2021/12/30 07:05:02;;;;;;;2.38;1.50;;;;;;;10.16;72.01;101165.03;4877382;29;20552;-88
2021/12/30 07:07:27;;;;;;;1.60;1.30;;;;;;;9.62;71.66;101071.19;4879368;29;20407;-89
2021/12/30 07:09:53;;;;;;;2.92;1.30;;;;;;;9.56;71.65;101054.34;4879282;29;20039;-87
2021/12/30 07:12:22;;;;;;;1.13;1.02;;;;;;;9.97;71.72;101128.19;4863483;29;20037;-88
2021/12/30 07:14:48;;;;;;;1.38;1.17;;;;;;;9.93;71.63;101129.69;4879326;29;20028;-87
2021/12/30 07:17:15;;;;;;;1.77;1.20;;;;;;;10.20;71.59;101176.53;4878455;29;20098;-87
2021/12/30 07:19:42;;;;;;;1.20;1.10;;;;;;;10.02;71.49;101155.44;4879513;29;20046;-86
2021/12/30 07:22:07;;;;;;;1.42;1.20;;;;;;;9.69;71.73;101105.56;4878800;29;20033;-86
2021/12/30 07:24:33;;;;;;;1.42;1.30;;;;;;;9.54;71.94;101062.88;4897248;29;20029;-86
2021/12/30 07:26:59;;;;;;;3.13;1.20;;;;;;;10.11;71.71;101169.03;4897258;29;20092;-86
2021/12/30 07:29:24;;;;;;;2.92;1.10;;;;;;;9.80;71.88;101124.50;4880558;29;20041;-87
2021/12/30 07:31:50;;;;;;;2.67;1.40;;;;;;;9.31;72.49;101072.78;4895994;29;20064;-86
2021/12/30 07:34:15;;;;;;;3.58;2.53;;;;;;;9.93;71.66;101187.06;4896467;29;20055;-87
2021/12/30 07:36:41;;;;;;;3.70;2.17;;;;;;;9.99;71.47;101186.56;4876927;29;20139;-87
2021/12/30 07:39:07;;;;;;;2.58;2.03;;;;;;;10.13;71.34;101197.84;4877235;29;20029;-87
2021/12/30 07:41:33;;;;;;;2.33;1.85;;;;;;;9.95;71.66;101175.03;4875992;29;20115;-87
2021/12/30 07:43:58;;;;;;;3.50;1.77;;;;;;;10.07;71.68;101200.97;4873491;29;20555;-87
2021/12/30 07:46:24;;;;;;;2.45;1.60;;;;;;;10.18;71.70;101212.06;4874605;29;20400;-87
2021/12/30 07:48:50;;;;;;;2.25;1.52;;;;;;;10.22;71.49;101229.75;4872033;29;20495;-87
2021/12/30 07:51:15;;;;;;;3.78;1.95;;;;;;;9.87;71.65;101162.31;4877444;29;20126;-87
2021/12/30 07:53:41;;;;;;;3.38;1.83;;;;;;;9.84;71.68;101172.53;4876492;29;20037;-86
2021/12/30 07:56:08;;;;;;;2.42;1.70;;;;;;;9.60;71.97;101143.22;4877142;29;20128;-86
2021/12/30 07:58:33;;;;;;;;;;;;;;;10.23;71.97;101243.72;4877235;29;20040;-86
2021/12/30 08:00:59;;;;;;;2.08;1.50;;;;;;;9.62;72.10;101163.34;4878067;29;19915;-87
2021/12/30 08:03:24;;;;;;;1.50;1.40;;;;;;;9.83;71.53;101186.41;4878149;29;20056;-89
2021/12/30 08:05:51;;;;;;;2.13;1.60;;;;;;;10.21;71.87;101277.53;4876672;29;20286;-89
2021/12/30 08:08:17;;;;;;;1.98;1.60;;;;;;;9.36;71.80;101133.00;4876215;29;20525;-88
2021/12/30 08:10:44;;;;;;;1.60;1.50;;;;;;;10.24;72.05;101284.66;4876170;29;20117;-88
2021/12/30 08:13:11;;;;;;;2.35;1.20;;;;;;;9.95;71.83;101255.91;4875999;29;20116;-88
2021/12/30 08:15:37;;;;;;;1.70;1.58;;;;;;;10.24;71.77;101310.75;4858543;29;20476;-88
2021/12/30 08:18:03;;;;;;;2.15;1.60;;;;;;;10.29;71.76;101299.84;4862617;29;20021;-89
2021/12/30 08:20:29;;;;;;;1.70;1.60;;;;;;;9.81;72.06;101229.75;4876897;29;20037;-88
2021/12/30 08:22:56;;;;;;;1.90;1.70;;;;;;;10.07;72.09;101289.69;4877999;29;20547;-89
2021/12/30 08:25:25;;;;;;;1.75;1.65;;;;;;;10.17;72.33;101309.47;4878238;29;20143;-88
2021/12/30 08:27:51;;;;;;;2.75;1.75;;;;;;;10.22;72.45;101328.03;4881533;29;20096;-88
2021/12/30 08:30:19;;;;;;;1.88;1.70;;;;;;;10.23;72.26;101329.84;4881532;29;20032;-89
2021/12/30 08:32:46;;;;;;;2.55;1.77;;;;;;;9.98;72.09;101290.00;4864883;29;20045;-90
2021/12/30 08:35:15;;;;;;;;;;;;;;;10.29;72.38;101349.44;4865406;29;20045;-89
2021/12/30 08:37:41;;;;;;;2.28;1.80;;;;;;;9.75;72.37;101278.06;4879678;29;19920;-88
2021/12/30 08:40:09;;;;;;;2.53;1.80;;;;;;;9.84;72.51;101300.34;4881905;29;20058;-88
2021/12/30 08:42:36;;;;;;;2.40;1.70;;;;;;;9.92;72.38;101320.91;4881096;29;20532;-88
2021/12/30 08:45:02;;;;;;;2.10;1.60;;;;;;;10.14;72.46;101351.03;4880044;29;20388;-87
2021/12/30 08:47:30;;;;;;;3.78;1.88;;;;;;;10.17;72.64;101359.94;4887647;29;20085;-87
2021/12/30 08:49:56;;;;;;;1.90;1.60;;;;;;;9.95;72.87;101326.34;4898946;29;20028;-87
2021/12/30 08:52:24;;;;;;;2.85;1.55;;;;;;;10.22;72.58;101378.50;4898337;29;20127;-88
2021/12/30 08:54:50;;;;;;;1.85;1.60;;;;;;;9.76;72.17;101305.97;4899598;29;20092;-86
2021/12/30 08:57:17;;;;;;;1.85;1.67;;;;;;;10.15;72.29;101351.13;4898111;29;20033;-87
2021/12/30 08:59:44;;;;;;;2.30;1.75;;;;;;;10.12;72.72;101339.59;4898301;29;20024;-87
2021/12/30 09:02:10;;;;;;;1.98;1.48;;;;;;;10.01;72.34;101304.06;4891152;29;20026;-86
2021/12/30 09:04:36;;;;;;;1.98;1.52;;;;;;;9.89;72.28;101296.34;4860884;29;20064;-88
2021/12/30 09:07:02;;;;;;;2.78;1.55;;;;;;;9.94;72.66;101311.47;4870716;29;20472;-87
2021/12/30 09:09:28;;;;;;;1.83;1.65;;;;;;;10.09;72.88;101336.78;4880609;29;20037;-88
2021/12/30 09:11:55;;;;;;;2.33;1.73;;;;;;;10.12;72.99;101343.09;4872606;29;20044;-88
2021/12/30 09:14:21;;;;;;;1.92;1.60;;;;;;;9.89;72.58;101296.34;4879019;29;20590;-88
2021/12/30 09:16:48;;;;;;;2.00;1.80;;;;;;;9.65;72.60;101256.50;4879242;29;20119;-88
2021/12/30 09:19:15;;;;;;;2.25;1.70;;;;;;;10.03;73.00;101319.00;4879460;29;20112;-89
2021/12/30 09:21:42;;;;;;;1.90;1.65;;;;;;;10.33;72.72;101361.00;4879113;29;20033;-89
2021/12/30 09:24:10;;;;;;;2.28;1.83;;;;;;;10.34;72.16;101373.22;4880855;29;20029;-88
2021/12/30 09:26:36;;;;;;;2.35;1.67;;;;;;;9.78;72.70;101291.34;4879340;29;20116;-88
2021/12/30 09:29:10;;;;;;;2.40;1.88;;;;;;;10.22;73.04;101365.47;4879497;29;20473;-89
2021/12/30 09:31:38;;;;;;;2.83;1.77;;;;;;;9.45;72.17;101226.53;4879118;29;20532;-87
2021/12/30 09:34:04;;;;;;;2.25;1.60;;;;;;;9.85;72.43;101296.97;4878755;29;20025;-87
2021/12/30 09:36:30;;;;;;;2.47;1.52;;;;;;;9.69;73.03;101272.44;4860943;29;20093;-87
2021/12/30 09:38:56;;;;;;;3.22;1.67;;;;;;;9.96;72.74;101322.91;4863192;29;20037;-88
2021/12/30 09:41:22;;;;;;;2.75;1.90;;;;;;;9.74;72.99;101291.03;4880142;29;20041;-89
2021/12/30 09:43:48;;;;;;;2.03;1.70;;;;;;;9.86;72.87;101296.13;4862895;29;20032;-86
2021/12/30 09:46:17;;;;;;;1.95;1.60;;;;;;;9.74;72.98;101278.88;4863254;29;20033;-88
2021/12/30 09:48:44;;;;;;;2.50;1.90;;;;;;;9.86;72.71;101280.47;4863919;29;20037;-87
2021/12/30 09:51:10;;;;;;;2.20;1.67;;;;;;;10.30;72.75;101358.16;4876567;29;20028;-88
2021/12/30 09:53:36;;;;;;;1.77;1.67;;;;;;;10.32;72.81;101364.41;4882403;29;20028;-88
2021/12/30 09:56:03;;;;;;;1.92;1.70;;;;;;;10.35;72.39;101361.97;4881953;29;20044;-88
2021/12/30 09:58:30;;;;;;;2.33;1.80;;;;;;;10.28;72.95;101371.09;4881249;29;20487;-88
2021/12/30 10:00:57;;;;;;;2.85;1.90;;;;;;;9.99;72.73;101325.75;4898046;29;20036;-88
2021/12/30 10:03:23;;;;;;;2.50;1.92;;;;;;;10.09;72.47;101326.34;4859021;29;20025;-89
2021/12/30 10:05:51;;;;;;;2.58;1.90;;;;;;;10.09;72.80;101340.28;4867866;29;20044;-90
2021/12/30 10:08:25;;;;;;;2.25;1.83;;;;;;;9.95;73.15;101312.41;4864982;29;20041;-89
2021/12/30 10:10:56;;;;;;;2.72;1.83;;;;;;;9.97;73.02;101339.50;4875920;29;20410;-89
2021/12/30 10:13:24;;;;;;;3.30;2.13;;;;;;;10.08;72.89;101364.56;4866621;29;20075;-87
2021/12/30 10:15:55;;;;;;;3.05;2.00;;;;;;;10.15;73.27;101372.00;4879633;29;20487;-88
2021/12/30 10:18:23;;;;;;;3.03;2.00;;;;;;;10.14;73.13;101383.25;4866137;29;20104;-89
2021/12/30 10:20:50;;;;;;;3.53;2.05;;;;;;;9.90;73.28;101339.88;4874526;29;20060;-88
2021/12/30 10:23:17;;;;;;;;;;;;;;;10.35;73.10;101415.09;4881811;29;20036;-88
2021/12/30 10:25:48;;;;;;;3.33;2.10;;;;;;;9.66;72.92;101294.84;4898339;29;20019;-88
2021/12/30 10:28:31;;;;;;;2.80;1.90;;;;;;;10.18;73.28;101390.47;4875935;29;20060;-89
2021/12/30 10:31:12;;;;;;;2.63;2.10;;;;;;;9.63;73.14;101277.31;4868297;29;20028;-88
2021/12/30 10:34:12;;;;;;;2.92;2.08;;;;;;;10.35;73.08;101393.28;4897635;29;20028;-89
2021/12/30 10:36:44;;;;;;;3.10;2.20;;;;;;;10.31;72.72;101396.53;4876834;29;20132;-88
2021/12/30 10:39:23;;;;;;;4.18;2.60;;;;;;;10.03;72.59;101328.53;4881306;29;20017;-86
2021/12/30 10:42:16;;;;;;;3.78;2.42;;;;;;;9.99;72.56;101309.19;4879458;29;20033;-88
2021/12/30 10:44:48;;;;;;;4.18;2.60;;;;;;;10.36;72.39;101369.00;4889949;29;20467;-88
2021/12/30 10:47:15;;;;;;;3.30;2.42;;;;;;;10.09;72.36;101342.00;4897549;29;20021;-88
2021/12/30 10:50:06;;;;;;;4.32;2.80;;;;;;;10.28;72.47;101370.19;4880843;29;20071;-89
2021/12/30 10:52:32;;;;;;;3.45;2.22;;;;;;;9.83;72.66;101288.13;4879649;29;20082;-88
2021/12/30 10:55:09;;;;;;;4.10;2.53;;;;;;;9.87;72.71;101290.13;4881283;29;20052;-89
2021/12/30 10:57:35;;;;;;;3.10;2.22;;;;;;;9.73;72.87;101279.69;4881276;29;20020;-88
2021/12/30 11:00:00;;;;;;;3.53;2.33;;;;;;;10.13;72.84;101357.94;4875268;29;20400;-89
2021/12/30 11:02:28;;;;;;;3.05;2.03;;;;;;;10.32;72.40;101367.91;4881488;29;20519;-88
2021/12/30 11:05:05;;;;;;;3.55;2.30;;;;;;;10.13;73.17;101373.59;4870462;29;20495;-88
2021/12/30 11:07:42;;;;;;;;;;;;;;;10.37;72.59;101378.63;4892861;29;20047;-88
2021/12/30 11:10:09;;;;;;;2.67;1.98;;;;;;;10.26;72.40;101384.84;4877736;29;19915;-88
2021/12/30 11:12:41;;;;;;;2.97;2.17;;;;;;;9.99;72.61;101349.22;4862107;29;20071;-87
2021/12/30 11:15:26;;;;;;;4.00;2.22;;;;;;;10.24;72.32;101394.28;4862796;29;20044;-87
2021/12/30 11:17:55;;;;;;;3.05;2.13;;;;;;;10.11;72.64;101376.91;4862066;29;20554;-87
2021/12/30 11:20:23;;;;;;;2.65;2.10;;;;;;;10.13;72.53;101360.56;4865293;29;20035;-88
2021/12/30 11:22:48;;;;;;;2.97;2.17;;;;;;;9.96;72.65;101346.41;4878701;29;20032;-87
2021/12/30 11:25:17;;;;;;;3.40;2.42;;;;;;;10.11;72.80;101369.97;4887823;29;20029;-85
2021/12/30 11:27:44;;;;;;;5.43;1.98;;;;;;;10.11;72.81;101387.34;4879291;29;20043;-86
2021/12/30 11:30:12;;;;;;;2.67;2.00;;;;;;;10.02;72.68;101361.56;4875294;29;20028;-88
2021/12/30 11:32:38;;;;;;;2.90;2.00;;;;;;;10.27;72.31;101421.50;4877522;29;20043;-87
2021/12/30 11:35:06;;;;;;;4.47;2.17;;;;;;;9.71;72.50;101325.63;4880366;29;20033;-87
2021/12/30 11:37:32;;;;;;;2.28;1.90;;;;;;;10.11;72.59;101397.78;4876141;29;20067;-87
2021/12/30 11:40:03;;;;;;;2.35;1.85;;;;;;;9.95;72.10;101356.75;4876959;29;20067;-87
2021/12/30 11:42:35;;;;;;;2.53;1.98;;;;;;;10.25;72.60;101445.69;4892730;29;20112;-87
2021/12/30 11:45:06;;;;;;;2.28;1.80;;;;;;;9.96;73.12;101382.94;4878633;29;20409;-88
2021/12/30 11:47:32;;;;;;;2.95;2.00;;;;;;;10.28;72.24;101422.41;4861713;29;20067;-88